sensor_id;sensor_type;location;lat;lon;timestamp;P1;P2;P0
62778;PMS7003;48821;48.796;2.396;2022-07-15T05:33:30;4.75;4.75;4.00
62778;PMS7003;48821;48.796;2.396;2022-07-15T05:34:41;5.00;5.00;4.00
62778;PMS7003;48821;48.796;2.396;2022-07-15T05:35:51;5.00;5.00;4.00
62778;PMS7003;48821;48.796;2.396;2022-07-15T05:37:02;5.00;5.00;4.25
62778;PMS7003;48821;48.796;2.396;2022-07-15T05:38:12;7.25;3.75;3.00
62778;PMS7003;48821;48.796;2.396;2022-07-15T05:39:23;3.50;2.75;2.00
62778;PMS7003;48821;48.796;2.396;2022-07-15T05:40:33;4.25;4.25;3.50
62778;PMS7003;48821;48.796;2.396;2022-07-15T05:41:44;6.00;6.00;5.00
62778;PMS7003;48821;48.796;2.396;2022-07-15T05:42:54;7.00;4.75;4.00
62778;PMS7003;48821;48.796;2.396;2022-07-15T05:44:05;5.75;5.75;4.00
62778;PMS7003;48821;48.796;2.396;2022-07-15T05:45:15;4.00;2.00;2.00
62778;PMS7003;48821;48.796;2.396;2022-07-15T05:46:26;7.00;4.50;4.00
62778;PMS7003;48821;48.796;2.396;2022-07-15T05:47:37;5.50;3.75;3.25
62778;PMS7003;48821;48.796;2.396;2022-07-15T05:48:47;6.25;4.25;4.00
62778;PMS7003;48821;48.796;2.396;2022-07-15T05:49:58;5.25;5.00;3.75
62778;PMS7003;48821;48.796;2.396;2022-07-15T05:51:08;2.00;2.00;1.25
62778;PMS7003;48821;48.796;2.396;2022-07-15T05:52:18;4.00;4.00;3.00
62778;PMS7003;48821;48.796;2.396;2022-07-15T05:53:29;5.00;3.50;2.50
62778;PMS7003;48821;48.796;2.396;2022-07-15T05:54:40;3.00;3.00;2.00
62778;PMS7003;48821;48.796;2.396;2022-07-15T05:55:51;6.00;5.75;4.25
62778;PMS7003;48821;48.796;2.396;2022-07-15T05:57:03;4.25;4.00;3.00
62778;PMS7003;48821;48.796;2.396;2022-07-15T05:58:13;8.75;5.50;4.75
62778;PMS7003;48821;48.796;2.396;2022-07-15T05:59:24;6.00;5.25;3.75
62778;PMS7003;48821;48.796;2.396;2022-07-15T06:00:34;5.50;4.75;3.50
62778;PMS7003;48821;48.796;2.396;2022-07-15T06:01:45;5.00;5.00;4.00
62778;PMS7003;48821;48.796;2.396;2022-07-15T06:02:56;4.25;3.25;2.75
62778;PMS7003;48821;48.796;2.396;2022-07-15T06:04:06;5.00;4.00;3.00
62778;PMS7003;48821;48.796;2.396;2022-07-15T06:05:17;4.00;4.00;3.75
62778;PMS7003;48821;48.796;2.396;2022-07-15T06:06:28;7.00;5.25;4.25
62778;PMS7003;48821;48.796;2.396;2022-07-15T06:07:38;4.75;3.00;1.25
62778;PMS7003;48821;48.796;2.396;2022-07-15T06:08:48;5.00;5.00;4.25
62778;PMS7003;48821;48.796;2.396;2022-07-15T06:09:59;6.00;5.75;4.50
62778;PMS7003;48821;48.796;2.396;2022-07-15T06:11:09;7.00;5.00;4.00
62778;PMS7003;48821;48.796;2.396;2022-07-15T06:12:21;5.00;4.50;4.00
62778;PMS7003;48821;48.796;2.396;2022-07-15T06:13:32;6.75;5.50;4.00
62778;PMS7003;48821;48.796;2.396;2022-07-15T06:14:42;7.25;4.75;3.25
62778;PMS7003;48821;48.796;2.396;2022-07-15T06:15:53;4.50;4.50;3.00
62778;PMS7003;48821;48.796;2.396;2022-07-15T06:17:03;6.00;6.00;5.00
62778;PMS7003;48821;48.796;2.396;2022-07-15T06:18:13;7.00;5.75;4.50
62778;PMS7003;48821;48.796;2.396;2022-07-15T06:19:24;6.50;5.50;4.50
62778;PMS7003;48821;48.796;2.396;2022-07-15T06:20:34;7.00;4.50;4.00
62778;PMS7003;48821;48.796;2.396;2022-07-15T06:21:45;5.75;4.00;3.00
62778;PMS7003;48821;48.796;2.396;2022-07-15T06:22:55;5.25;4.00;3.25
62778;PMS7003;48821;48.796;2.396;2022-07-15T06:24:05;5.00;4.25;4.00
62778;PMS7003;48821;48.796;2.396;2022-07-15T06:25:16;7.00;5.00;4.00
62778;PMS7003;48821;48.796;2.396;2022-07-15T06:26:26;4.00;4.00;3.25
62778;PMS7003;48821;48.796;2.396;2022-07-15T06:27:37;6.00;3.50;3.00
62778;PMS7003;48821;48.796;2.396;2022-07-15T06:28:47;7.50;5.00;3.75
62778;PMS7003;48821;48.796;2.396;2022-07-15T06:29:59;4.25;3.75;3.00
62778;PMS7003;48821;48.796;2.396;2022-07-15T06:31:10;7.00;4.25;4.00
62778;PMS7003;48821;48.796;2.396;2022-07-15T06:32:20;6.00;5.00;4.00
62778;PMS7003;48821;48.796;2.396;2022-07-15T06:33:30;5.75;4.50;4.00
62778;PMS7003;48821;48.796;2.396;2022-07-15T06:34:41;7.00;5.00;3.25
62778;PMS7003;48821;48.796;2.396;2022-07-15T06:35:51;4.50;4.50;3.50
62778;PMS7003;48821;48.796;2.396;2022-07-15T06:37:02;5.25;5.25;3.75
62778;PMS7003;48821;48.796;2.396;2022-07-15T06:38:12;7.00;5.00;4.00
62778;PMS7003;48821;48.796;2.396;2022-07-15T06:39:22;7.00;4.25;3.25
62778;PMS7003;48821;48.796;2.396;2022-07-15T06:40:33;4.00;4.00;3.00
62778;PMS7003;48821;48.796;2.396;2022-07-15T06:41:43;7.50;6.00;5.00
62778;PMS7003;48821;48.796;2.396;2022-07-15T06:42:53;5.00;5.00;4.00
62778;PMS7003;48821;48.796;2.396;2022-07-15T06:44:04;4.25;4.25;3.25
62778;PMS7003;48821;48.796;2.396;2022-07-15T06:45:15;4.25;4.25;4.00
62778;PMS7003;48821;48.796;2.396;2022-07-15T06:46:26;4.75;4.00;3.00
62778;PMS7003;48821;48.796;2.396;2022-07-15T06:47:40;7.00;5.25;4.25
62778;PMS7003;48821;48.796;2.396;2022-07-15T06:48:51;6.50;5.00;4.00
62778;PMS7003;48821;48.796;2.396;2022-07-15T06:50:01;6.50;6.50;5.00
62778;PMS7003;48821;48.796;2.396;2022-07-15T06:51:12;7.00;6.50;4.00
62778;PMS7003;48821;48.796;2.396;2022-07-15T06:52:22;6.00;6.00;3.50
62778;PMS7003;48821;48.796;2.396;2022-07-15T06:53:33;6.50;5.75;4.75
62778;PMS7003;48821;48.796;2.396;2022-07-15T06:54:43;6.75;6.25;5.00
62778;PMS7003;48821;48.796;2.396;2022-07-15T06:55:54;5.50;4.25;3.50
62778;PMS7003;48821;48.796;2.396;2022-07-15T06:57:04;5.75;5.75;4.50
62778;PMS7003;48821;48.796;2.396;2022-07-15T06:58:15;8.00;6.00;5.00
62778;PMS7003;48821;48.796;2.396;2022-07-15T06:59:25;7.00;6.00;5.00
62778;PMS7003;48821;48.796;2.396;2022-07-15T07:00:36;6.50;5.50;3.75
62778;PMS7003;48821;48.796;2.396;2022-07-15T07:01:47;4.75;4.00;4.00
62778;PMS7003;48821;48.796;2.396;2022-07-15T07:02:57;6.00;5.00;4.00
62778;PMS7003;48821;48.796;2.396;2022-07-15T07:04:07;6.50;6.00;4.00
62778;PMS7003;48821;48.796;2.396;2022-07-15T07:05:18;7.75;6.75;5.00
62778;PMS7003;48821;48.796;2.396;2022-07-15T07:06:28;4.25;3.50;3.00
62778;PMS7003;48821;48.796;2.396;2022-07-15T07:07:39;7.25;6.25;4.25
62778;PMS7003;48821;48.796;2.396;2022-07-15T07:08:49;5.50;5.50;5.00
62778;PMS7003;48821;48.796;2.396;2022-07-15T07:10:02;5.50;4.00;4.00
62778;PMS7003;48821;48.796;2.396;2022-07-15T07:11:12;8.25;7.25;5.00
62778;PMS7003;48821;48.796;2.396;2022-07-15T07:12:23;4.50;4.00;3.25
62778;PMS7003;48821;48.796;2.396;2022-07-15T07:13:34;7.25;6.00;4.75
62778;PMS7003;48821;48.796;2.396;2022-07-15T07:14:44;7.50;6.00;5.00
62778;PMS7003;48821;48.796;2.396;2022-07-15T07:15:54;5.25;5.00;4.00
62778;PMS7003;48821;48.796;2.396;2022-07-15T07:17:05;5.50;4.00;4.00
62778;PMS7003;48821;48.796;2.396;2022-07-15T07:18:16;8.50;5.00;4.00
62778;PMS7003;48821;48.796;2.396;2022-07-15T07:19:26;4.00;2.75;2.00
62778;PMS7003;48821;48.796;2.396;2022-07-15T07:20:37;9.00;6.25;5.00
62778;PMS7003;48821;48.796;2.396;2022-07-15T07:21:47;4.25;3.00;3.00
62778;PMS7003;48821;48.796;2.396;2022-07-15T07:22:58;4.50;4.00;3.25
62778;PMS7003;48821;48.796;2.396;2022-07-15T07:24:08;4.00;4.00;3.00
62778;PMS7003;48821;48.796;2.396;2022-07-15T07:25:18;6.00;4.00;4.00
62778;PMS7003;48821;48.796;2.396;2022-07-15T07:26:29;6.00;4.00;3.50
62778;PMS7003;48821;48.796;2.396;2022-07-15T07:27:39;5.50;5.50;4.00
62778;PMS7003;48821;48.796;2.396;2022-07-15T07:28:50;4.25;4.00;3.25
62778;PMS7003;48821;48.796;2.396;2022-07-15T07:30:02;5.00;3.25;3.00
62778;PMS7003;48821;48.796;2.396;2022-07-15T07:31:14;7.25;5.75;4.50
62778;PMS7003;48821;48.796;2.396;2022-07-15T07:32:24;5.00;5.00;4.00
62778;PMS7003;48821;48.796;2.396;2022-07-15T07:33:35;4.50;4.00;3.75
62778;PMS7003;48821;48.796;2.396;2022-07-15T07:34:45;5.75;4.00;3.50
62778;PMS7003;48821;48.796;2.396;2022-07-15T07:35:56;4.00;4.00;4.00
62778;PMS7003;48821;48.796;2.396;2022-07-15T07:37:06;5.00;5.00;3.75
62778;PMS7003;48821;48.796;2.396;2022-07-15T07:38:17;6.50;4.00;3.00
62778;PMS7003;48821;48.796;2.396;2022-07-15T07:39:29;3.50;3.50;2.50
62778;PMS7003;48821;48.796;2.396;2022-07-15T07:40:39;4.00;4.00;4.00
62778;PMS7003;48821;48.796;2.396;2022-07-15T07:41:50;6.00;5.00;4.00
62778;PMS7003;48821;48.796;2.396;2022-07-15T07:43:03;6.00;5.00;3.75
62778;PMS7003;48821;48.796;2.396;2022-07-15T07:44:13;2.75;2.75;2.50
62778;PMS7003;48821;48.796;2.396;2022-07-15T07:45:24;4.00;4.00;3.50
62778;PMS7003;48821;48.796;2.396;2022-07-15T07:46:34;4.00;4.00;3.50
62778;PMS7003;48821;48.796;2.396;2022-07-15T07:47:45;2.00;2.00;2.00
62778;PMS7003;48821;48.796;2.396;2022-07-15T07:48:55;3.75;3.75;3.00
62778;PMS7003;48821;48.796;2.396;2022-07-15T07:50:07;4.00;4.00;3.00
62778;PMS7003;48821;48.796;2.396;2022-07-15T07:51:18;2.50;2.50;1.00
62778;PMS7003;48821;48.796;2.396;2022-07-15T07:52:28;4.50;3.50;3.50
62778;PMS7003;48821;48.796;2.396;2022-07-15T07:53:38;2.50;2.50;2.00
62778;PMS7003;48821;48.796;2.396;2022-07-15T07:54:49;4.25;2.00;2.00
62778;PMS7003;48821;48.796;2.396;2022-07-15T07:56:00;5.00;4.00;3.75
62778;PMS7003;48821;48.796;2.396;2022-07-15T07:57:10;4.00;4.00;3.00
62778;PMS7003;48821;48.796;2.396;2022-07-15T07:58:21;4.00;3.00;2.50
62778;PMS7003;48821;48.796;2.396;2022-07-15T07:59:31;5.25;2.75;2.00
62778;PMS7003;48821;48.796;2.396;2022-07-15T08:00:42;4.75;3.25;3.00
62778;PMS7003;48821;48.796;2.396;2022-07-15T08:01:53;3.00;3.00;2.75
62778;PMS7003;48821;48.796;2.396;2022-07-15T08:03:03;4.75;3.50;3.25
62778;PMS7003;48821;48.796;2.396;2022-07-15T08:04:14;4.50;4.50;3.00
62778;PMS7003;48821;48.796;2.396;2022-07-15T08:05:24;3.50;3.00;2.00
62778;PMS7003;48821;48.796;2.396;2022-07-15T08:06:35;1.75;1.00;0.00
62778;PMS7003;48821;48.796;2.396;2022-07-15T08:07:48;4.00;3.25;2.50
62778;PMS7003;48821;48.796;2.396;2022-07-15T08:08:58;4.00;4.00;3.00
62778;PMS7003;48821;48.796;2.396;2022-07-15T08:10:09;3.00;3.00;2.75
62778;PMS7003;48821;48.796;2.396;2022-07-15T08:11:20;2.75;2.75;2.25
62778;PMS7003;48821;48.796;2.396;2022-07-15T08:12:30;5.25;3.25;3.00
62778;PMS7003;48821;48.796;2.396;2022-07-15T08:13:41;4.00;3.75;3.00
62778;PMS7003;48821;48.796;2.396;2022-07-15T08:14:52;3.00;3.00;3.00
62778;PMS7003;48821;48.796;2.396;2022-07-15T08:16:05;3.00;3.00;2.00
62778;PMS7003;48821;48.796;2.396;2022-07-15T08:17:16;6.00;5.00;4.00
62778;PMS7003;48821;48.796;2.396;2022-07-15T08:18:26;4.25;4.00;3.00
62778;PMS7003;48821;48.796;2.396;2022-07-15T08:19:38;3.00;2.50;2.00
62778;PMS7003;48821;48.796;2.396;2022-07-15T08:20:48;6.75;3.00;2.00
62778;PMS7003;48821;48.796;2.396;2022-07-15T08:21:59;3.50;2.75;2.50
62778;PMS7003;48821;48.796;2.396;2022-07-15T08:23:09;3.75;3.75;3.00
62778;PMS7003;48821;48.796;2.396;2022-07-15T08:24:19;4.25;2.50;1.00
62778;PMS7003;48821;48.796;2.396;2022-07-15T08:25:31;3.00;3.00;3.00
62778;PMS7003;48821;48.796;2.396;2022-07-15T08:26:43;4.00;3.00;2.00
62778;PMS7003;48821;48.796;2.396;2022-07-15T08:27:54;2.00;2.00;2.00
62778;PMS7003;48821;48.796;2.396;2022-07-15T08:29:05;3.00;3.00;2.25
62778;PMS7003;48821;48.796;2.396;2022-07-15T08:30:15;3.00;2.00;2.00
62778;PMS7003;48821;48.796;2.396;2022-07-15T08:31:25;2.00;2.00;2.00
62778;PMS7003;48821;48.796;2.396;2022-07-15T08:32:36;5.25;3.00;2.00
62778;PMS7003;48821;48.796;2.396;2022-07-15T08:33:46;2.00;2.00;2.00
62778;PMS7003;48821;48.796;2.396;2022-07-15T08:34:57;3.00;3.00;3.00
62778;PMS7003;48821;48.796;2.396;2022-07-15T08:36:07;2.50;2.50;2.00
62778;PMS7003;48821;48.796;2.396;2022-07-15T08:37:18;3.50;3.50;3.00
62778;PMS7003;48821;48.796;2.396;2022-07-15T08:38:28;3.75;3.00;2.00
62778;PMS7003;48821;48.796;2.396;2022-07-15T08:39:40;7.00;2.25;2.00
62778;PMS7003;48821;48.796;2.396;2022-07-15T08:40:50;3.50;3.50;3.00
62778;PMS7003;48821;48.796;2.396;2022-07-15T08:42:00;4.00;4.00;3.00
62778;PMS7003;48821;48.796;2.396;2022-07-15T08:43:11;3.00;3.00;3.00
62778;PMS7003;48821;48.796;2.396;2022-07-15T08:44:21;2.00;2.00;2.00
62778;PMS7003;48821;48.796;2.396;2022-07-15T08:45:32;2.00;2.00;2.00
62778;PMS7003;48821;48.796;2.396;2022-07-15T08:46:45;3.00;2.50;2.00
62778;PMS7003;48821;48.796;2.396;2022-07-15T08:47:57;3.00;3.00;2.00
62778;PMS7003;48821;48.796;2.396;2022-07-15T08:49:12;1.00;1.00;0.50
62778;PMS7003;48821;48.796;2.396;2022-07-15T08:50:25;3.00;3.00;3.00
62778;PMS7003;48821;48.796;2.396;2022-07-15T08:51:40;4.75;4.00;2.75
62778;PMS7003;48821;48.796;2.396;2022-07-15T08:52:52;4.75;2.25;2.00
62778;PMS7003;48821;48.796;2.396;2022-07-15T08:54:04;2.50;2.00;2.00
62778;PMS7003;48821;48.796;2.396;2022-07-15T08:55:15;1.75;1.75;1.00
62778;PMS7003;48821;48.796;2.396;2022-07-15T08:56:26;4.00;2.00;1.50
62778;PMS7003;48821;48.796;2.396;2022-07-15T08:57:37;5.25;4.00;3.00
62778;PMS7003;48821;48.796;2.396;2022-07-15T08:58:47;2.00;2.00;1.00
62778;PMS7003;48821;48.796;2.396;2022-07-15T08:59:58;1.00;1.00;0.00
62778;PMS7003;48821;48.796;2.396;2022-07-15T09:01:08;5.00;3.00;3.00
62778;PMS7003;48821;48.796;2.396;2022-07-15T09:02:19;3.00;3.00;2.00
62778;PMS7003;48821;48.796;2.396;2022-07-15T09:03:30;3.00;2.00;1.50
62778;PMS7003;48821;48.796;2.396;2022-07-15T09:08:01;3.00;2.00;2.00
62778;PMS7003;48821;48.796;2.396;2022-07-15T09:09:21;3.25;2.75;2.00
62778;PMS7003;48821;48.796;2.396;2022-07-15T09:12:04;2.50;2.00;1.50
62778;PMS7003;48821;48.796;2.396;2022-07-15T09:13:26;2.75;2.75;2.00
62778;PMS7003;48821;48.796;2.396;2022-07-15T09:14:40;6.25;3.00;2.00
62778;PMS7003;48821;48.796;2.396;2022-07-15T09:15:53;2.25;2.00;2.00
62778;PMS7003;48821;48.796;2.396;2022-07-15T09:18:22;2.00;2.00;1.00
62778;PMS7003;48821;48.796;2.396;2022-07-15T09:21:23;3.25;3.25;2.75
62778;PMS7003;48821;48.796;2.396;2022-07-15T09:22:52;2.50;2.25;2.00
62778;PMS7003;48821;48.796;2.396;2022-07-15T09:24:16;2.00;2.00;1.50
62778;PMS7003;48821;48.796;2.396;2022-07-15T09:25:28;2.50;2.50;2.00
62778;PMS7003;48821;48.796;2.396;2022-07-15T09:26:38;2.50;2.00;2.00
62778;PMS7003;48821;48.796;2.396;2022-07-15T09:27:49;4.00;4.00;2.75
62778;PMS7003;48821;48.796;2.396;2022-07-15T09:29:01;2.50;2.50;2.00
62778;PMS7003;48821;48.796;2.396;2022-07-15T09:30:29;2.00;2.00;2.00
62778;PMS7003;48821;48.796;2.396;2022-07-15T09:32:07;2.75;2.50;2.00
62778;PMS7003;48821;48.796;2.396;2022-07-15T09:33:36;1.50;1.50;1.00
62778;PMS7003;48821;48.796;2.396;2022-07-15T09:35:00;2.00;2.00;1.75
62778;PMS7003;48821;48.796;2.396;2022-07-15T09:36:19;1.75;1.25;1.25
62778;PMS7003;48821;48.796;2.396;2022-07-15T09:37:32;1.00;1.00;1.00
62778;PMS7003;48821;48.796;2.396;2022-07-15T09:38:52;2.25;2.00;2.00
62778;PMS7003;48821;48.796;2.396;2022-07-15T09:40:05;4.00;2.25;2.00
62778;PMS7003;48821;48.796;2.396;2022-07-15T09:42:35;2.00;2.00;2.00
62778;PMS7003;48821;48.796;2.396;2022-07-15T09:43:50;3.75;3.00;2.75
62778;PMS7003;48821;48.796;2.396;2022-07-15T09:45:18;2.00;2.00;1.25
62778;PMS7003;48821;48.796;2.396;2022-07-15T09:46:40;2.00;2.00;1.50
62778;PMS7003;48821;48.796;2.396;2022-07-15T09:48:09;2.50;2.00;2.00
62778;PMS7003;48821;48.796;2.396;2022-07-15T09:50:37;2.00;2.00;2.00
62778;PMS7003;48821;48.796;2.396;2022-07-15T09:51:52;2.00;2.00;1.75
62778;PMS7003;48821;48.796;2.396;2022-07-15T09:53:12;3.00;1.50;1.00
62778;PMS7003;48821;48.796;2.396;2022-07-15T09:54:27;1.50;1.50;1.00
62778;PMS7003;48821;48.796;2.396;2022-07-15T09:55:41;2.50;2.00;1.25
62778;PMS7003;48821;48.796;2.396;2022-07-15T09:56:51;2.00;2.00;2.00
62778;PMS7003;48821;48.796;2.396;2022-07-15T09:58:05;2.25;2.25;2.00
62778;PMS7003;48821;48.796;2.396;2022-07-15T09:59:18;2.00;2.00;2.00
62778;PMS7003;48821;48.796;2.396;2022-07-15T10:00:29;3.00;2.25;2.00
62778;PMS7003;48821;48.796;2.396;2022-07-15T10:01:39;1.00;1.00;1.00
62778;PMS7003;48821;48.796;2.396;2022-07-15T10:02:51;0.00;0.00;0.00
62778;PMS7003;48821;48.796;2.396;2022-07-15T10:04:01;1.75;1.75;1.50
62778;PMS7003;48821;48.796;2.396;2022-07-15T10:05:12;1.75;1.75;1.00
62778;PMS7003;48821;48.796;2.396;2022-07-15T10:06:25;1.25;1.25;1.00
62778;PMS7003;48821;48.796;2.396;2022-07-15T10:07:37;1.00;1.00;1.00
62778;PMS7003;48821;48.796;2.396;2022-07-15T10:08:49;2.75;2.00;1.00
62778;PMS7003;48821;48.796;2.396;2022-07-15T10:10:00;2.00;2.00;2.00
62778;PMS7003;48821;48.796;2.396;2022-07-15T10:11:12;2.25;2.00;1.75
62778;PMS7003;48821;48.796;2.396;2022-07-15T10:12:23;2.00;2.00;1.00
62778;PMS7003;48821;48.796;2.396;2022-07-15T10:13:54;1.25;1.25;1.00
62778;PMS7003;48821;48.796;2.396;2022-07-15T10:15:24;1.50;1.50;1.00
62778;PMS7003;48821;48.796;2.396;2022-07-15T10:18:20;2.00;2.00;1.75
62778;PMS7003;48821;48.796;2.396;2022-07-15T10:21:38;1.00;1.00;1.00
62778;PMS7003;48821;48.796;2.396;2022-07-15T10:24:52;3.00;1.00;1.00
62778;PMS7003;48821;48.796;2.396;2022-07-15T10:27:48;2.00;2.00;1.25
62778;PMS7003;48821;48.796;2.396;2022-07-15T10:29:15;1.00;1.00;1.00
62778;PMS7003;48821;48.796;2.396;2022-07-15T10:30:27;1.50;1.50;1.50
62778;PMS7003;48821;48.796;2.396;2022-07-15T10:31:38;0.75;0.75;0.50
62778;PMS7003;48821;48.796;2.396;2022-07-15T10:35:43;1.50;1.50;1.50
62778;PMS7003;48821;48.796;2.396;2022-07-15T10:36:56;1.50;1.50;1.25
62778;PMS7003;48821;48.796;2.396;2022-07-15T10:41:06;2.00;2.00;2.00
62778;PMS7003;48821;48.796;2.396;2022-07-15T10:42:17;1.00;1.00;1.00
62778;PMS7003;48821;48.796;2.396;2022-07-15T10:47:26;1.25;1.25;1.25
62778;PMS7003;48821;48.796;2.396;2022-07-15T10:48:37;1.50;1.50;1.50
62778;PMS7003;48821;48.796;2.396;2022-07-15T10:49:48;1.50;1.00;1.00
62778;PMS7003;48821;48.796;2.396;2022-07-15T10:50:59;1.75;1.00;1.00
62778;PMS7003;48821;48.796;2.396;2022-07-15T10:52:11;1.00;1.00;1.00
62778;PMS7003;48821;48.796;2.396;2022-07-15T10:53:25;1.00;1.00;1.00
62778;PMS7003;48821;48.796;2.396;2022-07-15T10:54:38;2.00;1.00;1.00
62778;PMS7003;48821;48.796;2.396;2022-07-15T10:55:51;0.00;0.00;0.00
62778;PMS7003;48821;48.796;2.396;2022-07-15T10:57:02;1.00;1.00;1.00
62778;PMS7003;48821;48.796;2.396;2022-07-15T10:58:12;0.75;0.75;0.25
62778;PMS7003;48821;48.796;2.396;2022-07-15T10:59:26;1.00;1.00;1.00
62778;PMS7003;48821;48.796;2.396;2022-07-15T11:00:45;1.25;1.25;1.00
62778;PMS7003;48821;48.796;2.396;2022-07-15T11:04:23;1.00;1.00;1.00
62778;PMS7003;48821;48.796;2.396;2022-07-15T11:05:41;1.00;1.00;1.00
62778;PMS7003;48821;48.796;2.396;2022-07-15T11:13:41;1.75;1.50;1.00
62778;PMS7003;48821;48.796;2.396;2022-07-15T11:16:11;1.50;1.50;0.75
62778;PMS7003;48821;48.796;2.396;2022-07-15T11:18:44;1.00;1.00;1.00
62778;PMS7003;48821;48.796;2.396;2022-07-15T11:20:00;1.00;1.00;1.00
62778;PMS7003;48821;48.796;2.396;2022-07-15T11:21:16;2.00;2.00;2.00
62778;PMS7003;48821;48.796;2.396;2022-07-15T11:22:27;1.00;1.00;1.00
62778;PMS7003;48821;48.796;2.396;2022-07-15T11:23:38;1.00;1.00;1.00
62778;PMS7003;48821;48.796;2.396;2022-07-15T11:24:49;1.00;1.00;1.00
62778;PMS7003;48821;48.796;2.396;2022-07-15T11:25:59;2.00;1.50;1.00
62778;PMS7003;48821;48.796;2.396;2022-07-15T11:27:10;2.75;1.00;0.75
62778;PMS7003;48821;48.796;2.396;2022-07-15T11:28:20;1.00;0.25;0.25
62778;PMS7003;48821;48.796;2.396;2022-07-15T11:29:45;1.75;1.75;1.00
62778;PMS7003;48821;48.796;2.396;2022-07-15T11:30:58;1.25;1.00;0.75
62778;PMS7003;48821;48.796;2.396;2022-07-15T11:32:09;1.00;0.75;0.50
62778;PMS7003;48821;48.796;2.396;2022-07-15T11:33:21;2.00;2.00;1.00
62778;PMS7003;48821;48.796;2.396;2022-07-15T11:34:37;0.50;0.50;0.50
62778;PMS7003;48821;48.796;2.396;2022-07-15T11:35:50;1.50;1.50;1.50
62778;PMS7003;48821;48.796;2.396;2022-07-15T11:37:03;1.00;1.00;1.00
62778;PMS7003;48821;48.796;2.396;2022-07-15T11:38:14;1.00;1.00;1.00
62778;PMS7003;48821;48.796;2.396;2022-07-15T11:39:28;1.25;1.00;0.50
62778;PMS7003;48821;48.796;2.396;2022-07-15T11:40:43;2.00;1.00;1.00
62778;PMS7003;48821;48.796;2.396;2022-07-15T11:42:18;1.25;1.25;1.00
62778;PMS7003;48821;48.796;2.396;2022-07-15T11:44:09;1.00;1.00;1.00
62778;PMS7003;48821;48.796;2.396;2022-07-15T11:45:39;2.00;1.00;1.00
62778;PMS7003;48821;48.796;2.396;2022-07-15T11:46:49;2.00;2.00;1.25
62778;PMS7003;48821;48.796;2.396;2022-07-15T11:48:01;1.75;1.00;1.00
62778;PMS7003;48821;48.796;2.396;2022-07-15T11:49:24;2.00;1.00;1.00
62778;PMS7003;48821;48.796;2.396;2022-07-15T11:50:41;1.00;1.00;1.00
62778;PMS7003;48821;48.796;2.396;2022-07-15T11:52:00;1.00;1.00;0.50
62778;PMS7003;48821;48.796;2.396;2022-07-15T11:53:12;4.25;1.00;1.00
62778;PMS7003;48821;48.796;2.396;2022-07-15T11:54:24;1.25;1.00;1.00
62778;PMS7003;48821;48.796;2.396;2022-07-15T11:55:46;1.50;1.00;0.50
62778;PMS7003;48821;48.796;2.396;2022-07-15T11:57:01;2.50;1.00;1.00
62778;PMS7003;48821;48.796;2.396;2022-07-15T11:58:14;3.00;2.00;2.00
62778;PMS7003;48821;48.796;2.396;2022-07-15T11:59:24;2.25;1.25;1.25
62778;PMS7003;48821;48.796;2.396;2022-07-15T12:00:34;2.50;2.00;2.00
62778;PMS7003;48821;48.796;2.396;2022-07-15T12:01:45;3.00;1.00;0.50
62778;PMS7003;48821;48.796;2.396;2022-07-15T12:03:08;1.00;1.00;1.00
62778;PMS7003;48821;48.796;2.396;2022-07-15T12:04:25;1.00;1.00;0.75
62778;PMS7003;48821;48.796;2.396;2022-07-15T12:05:36;1.00;1.00;1.00
62778;PMS7003;48821;48.796;2.396;2022-07-15T12:06:50;1.75;1.75;1.00
62778;PMS7003;48821;48.796;2.396;2022-07-15T12:08:00;1.00;1.00;1.00
62778;PMS7003;48821;48.796;2.396;2022-07-15T12:09:10;2.00;2.00;1.00
62778;PMS7003;48821;48.796;2.396;2022-07-15T12:10:32;3.00;2.00;1.75
62778;PMS7003;48821;48.796;2.396;2022-07-15T12:11:43;1.00;1.00;1.00
62778;PMS7003;48821;48.796;2.396;2022-07-15T12:12:54;1.00;1.00;1.00
62778;PMS7003;48821;48.796;2.396;2022-07-15T12:14:10;1.00;1.00;1.00
62778;PMS7003;48821;48.796;2.396;2022-07-15T12:15:28;3.00;1.00;1.00
62778;PMS7003;48821;48.796;2.396;2022-07-15T12:17:50;0.75;0.75;0.25
62778;PMS7003;48821;48.796;2.396;2022-07-15T12:19:04;1.00;1.00;1.00
62778;PMS7003;48821;48.796;2.396;2022-07-15T12:20:17;2.00;1.00;1.00
62778;PMS7003;48821;48.796;2.396;2022-07-15T12:21:28;1.00;1.00;0.75
62778;PMS7003;48821;48.796;2.396;2022-07-15T12:24:20;1.00;1.00;1.00
62778;PMS7003;48821;48.796;2.396;2022-07-15T12:25:31;1.50;1.00;1.00
62778;PMS7003;48821;48.796;2.396;2022-07-15T12:28:02;1.00;1.00;1.00
62778;PMS7003;48821;48.796;2.396;2022-07-15T12:29:13;2.00;1.00;1.00
62778;PMS7003;48821;48.796;2.396;2022-07-15T12:30:30;0.25;0.25;0.00
62778;PMS7003;48821;48.796;2.396;2022-07-15T12:32:03;1.00;1.00;1.00
62778;PMS7003;48821;48.796;2.396;2022-07-15T12:33:22;1.00;1.00;1.00
62778;PMS7003;48821;48.796;2.396;2022-07-15T12:36:30;0.50;0.50;0.50
62778;PMS7003;48821;48.796;2.396;2022-07-15T12:38:45;0.00;0.00;0.00
62778;PMS7003;48821;48.796;2.396;2022-07-15T12:40:11;1.25;1.25;1.00
62778;PMS7003;48821;48.796;2.396;2022-07-15T12:41:24;0.00;0.00;0.00
62778;PMS7003;48821;48.796;2.396;2022-07-15T12:45:16;1.50;0.50;0.00
62778;PMS7003;48821;48.796;2.396;2022-07-15T12:49:11;0.75;0.75;0.75
62778;PMS7003;48821;48.796;2.396;2022-07-15T12:50:21;2.00;1.00;1.00
62778;PMS7003;48821;48.796;2.396;2022-07-15T12:51:32;3.00;0.75;0.25
62778;PMS7003;48821;48.796;2.396;2022-07-15T12:52:43;1.50;1.50;1.00
62778;PMS7003;48821;48.796;2.396;2022-07-15T12:54:02;1.00;1.00;0.00
62778;PMS7003;48821;48.796;2.396;2022-07-15T12:56:29;1.00;1.00;1.00
62778;PMS7003;48821;48.796;2.396;2022-07-15T12:57:39;2.00;1.00;1.00
62778;PMS7003;48821;48.796;2.396;2022-07-15T12:58:50;1.00;1.00;1.00
62778;PMS7003;48821;48.796;2.396;2022-07-15T13:00:05;0.50;0.50;0.50
62778;PMS7003;48821;48.796;2.396;2022-07-15T13:01:17;0.25;0.25;0.00
62778;PMS7003;48821;48.796;2.396;2022-07-15T13:02:28;1.00;1.00;1.00
62778;PMS7003;48821;48.796;2.396;2022-07-15T13:03:38;1.00;1.00;0.00
62778;PMS7003;48821;48.796;2.396;2022-07-15T13:04:49;2.00;1.00;1.00
62778;PMS7003;48821;48.796;2.396;2022-07-15T13:06:00;2.00;1.00;0.00
62778;PMS7003;48821;48.796;2.396;2022-07-15T13:07:11;1.00;0.50;0.25
62778;PMS7003;48821;48.796;2.396;2022-07-15T13:08:22;2.00;1.00;1.00
62778;PMS7003;48821;48.796;2.396;2022-07-15T13:09:34;1.00;1.00;1.00
62778;PMS7003;48821;48.796;2.396;2022-07-15T13:10:45;1.00;1.00;1.00
62778;PMS7003;48821;48.796;2.396;2022-07-15T13:11:58;1.00;1.00;1.00
62778;PMS7003;48821;48.796;2.396;2022-07-15T13:13:10;0.75;0.75;0.25
62778;PMS7003;48821;48.796;2.396;2022-07-15T13:14:22;1.00;1.00;1.00
62778;PMS7003;48821;48.796;2.396;2022-07-15T13:15:33;0.25;0.00;0.00
62778;PMS7003;48821;48.796;2.396;2022-07-15T13:16:43;2.00;0.00;0.00
62778;PMS7003;48821;48.796;2.396;2022-07-15T13:17:53;1.25;1.00;1.00
62778;PMS7003;48821;48.796;2.396;2022-07-15T13:19:04;1.00;1.00;0.75
62778;PMS7003;48821;48.796;2.396;2022-07-15T13:20:14;0.25;0.25;0.00
62778;PMS7003;48821;48.796;2.396;2022-07-15T13:21:24;0.00;0.00;0.00
62778;PMS7003;48821;48.796;2.396;2022-07-15T13:22:35;1.00;1.00;1.00
62778;PMS7003;48821;48.796;2.396;2022-07-15T13:23:45;1.00;0.50;0.00
62778;PMS7003;48821;48.796;2.396;2022-07-15T13:24:55;0.00;0.00;0.00
62778;PMS7003;48821;48.796;2.396;2022-07-15T13:26:06;0.50;0.50;0.50
62778;PMS7003;48821;48.796;2.396;2022-07-15T13:27:16;2.50;0.50;0.25
62778;PMS7003;48821;48.796;2.396;2022-07-15T13:28:26;1.00;1.00;0.75
62778;PMS7003;48821;48.796;2.396;2022-07-15T13:29:37;0.00;0.00;0.00
62778;PMS7003;48821;48.796;2.396;2022-07-15T13:30:47;0.75;0.00;0.00
62778;PMS7003;48821;48.796;2.396;2022-07-15T13:31:59;1.00;1.00;1.00